BAW461A LEMD-EGLL
Flight info
| Callsign | BAW461A |
|---|---|
| Flight time | N/A |
| Altitude | 36000 |
| Route | SIE N858 DGO N867 NENEM DCT DIDIG UP87 ROXOG |
| Aircraft | B772/H-SDE1E3FGHIJ3J5J6M1M2P2RWXYZ/LB1D1 |
Departure
| Time | N/A |
|---|---|
| Airport | Adolfo Suárez Madrid–Barajas Airport (LEMD) |
Arrival
| Time | 2026-05-05 19:01 |
|---|---|
| Airport | London Heathrow Airport (EGLL) |
| Time | Latitude | Longitude | Altitude | Speed | Heading |
|---|---|---|---|---|---|
| 2026-05-05 17:49 | 43.88536 | -3.10196 | 35987 ft | 469 kts | 346° |
| 2026-05-05 17:50 | 43.91728 | -3.11120 | 35983 ft | 469 kts | 346° |
| 2026-05-05 17:50 | 43.98123 | -3.12974 | 35986 ft | 469 kts | 346° |
| 2026-05-05 17:51 | 44.04602 | -3.14126 | 35978 ft | 473 kts | 0° |
| 2026-05-05 17:51 | 44.11093 | -3.12615 | 35980 ft | 477 kts | 16° |
| 2026-05-05 17:52 | 44.17402 | -3.09765 | 35980 ft | 477 kts | 16° |
| 2026-05-05 17:52 | 44.22658 | -3.07401 | 35976 ft | 478 kts | 16° |
| 2026-05-05 17:53 | 44.28990 | -3.04600 | 35975 ft | 477 kts | 16° |
| 2026-05-05 17:53 | 44.35328 | -3.01822 | 35973 ft | 477 kts | 16° |
| 2026-05-05 17:54 | 44.41665 | -2.99044 | 35975 ft | 477 kts | 16° |
| 2026-05-05 17:54 | 44.48005 | -2.96258 | 35969 ft | 477 kts | 16° |
| 2026-05-05 17:55 | 44.54334 | -2.93468 | 35968 ft | 477 kts | 16° |
| 2026-05-05 17:55 | 44.60713 | -2.90649 | 35964 ft | 477 kts | 16° |
| 2026-05-05 17:56 | 44.67004 | -2.87864 | 35962 ft | 477 kts | 16° |
| 2026-05-05 17:56 | 44.73373 | -2.85036 | 35958 ft | 478 kts | 16° |
| 2026-05-05 17:57 | 44.79711 | -2.82217 | 35957 ft | 478 kts | 16° |
| 2026-05-05 17:57 | 44.86061 | -2.79385 | 35960 ft | 478 kts | 16° |
| 2026-05-05 17:58 | 44.92398 | -2.76553 | 35951 ft | 478 kts | 16° |
| 2026-05-05 17:58 | 44.98758 | -2.73703 | 35955 ft | 478 kts | 16° |
| 2026-05-05 17:59 | 45.05096 | -2.70857 | 35953 ft | 478 kts | 16° |
| 2026-05-05 17:59 | 45.11436 | -2.68003 | 35951 ft | 477 kts | 16° |
| 2026-05-05 18:00 | 45.17756 | -2.65151 | 35949 ft | 477 kts | 16° |
| 2026-05-05 18:00 | 45.24076 | -2.62294 | 35939 ft | 476 kts | 17° |
| 2026-05-05 18:01 | 45.30382 | -2.59436 | 35941 ft | 476 kts | 17° |
| 2026-05-05 18:01 | 45.36685 | -2.56572 | 35948 ft | 475 kts | 17° |
| 2026-05-05 18:02 | 45.42988 | -2.53702 | 35936 ft | 475 kts | 17° |
| 2026-05-05 18:02 | 45.49291 | -2.50825 | 35938 ft | 475 kts | 17° |
| 2026-05-05 18:03 | 45.55626 | -2.47927 | 35946 ft | 475 kts | 17° |
| 2026-05-05 18:03 | 45.61874 | -2.45061 | 35933 ft | 475 kts | 17° |
| 2026-05-05 18:04 | 45.68182 | -2.42161 | 35933 ft | 475 kts | 17° |
| 2026-05-05 18:04 | 45.74506 | -2.39246 | 35930 ft | 475 kts | 17° |
| 2026-05-05 18:05 | 45.80752 | -2.36361 | 35925 ft | 474 kts | 18° |
| 2026-05-05 18:05 | 45.87066 | -2.33437 | 35927 ft | 474 kts | 18° |
| 2026-05-05 18:06 | 45.93337 | -2.30527 | 35921 ft | 473 kts | 18° |
| 2026-05-05 18:06 | 45.99597 | -2.27615 | 35925 ft | 473 kts | 18° |
| 2026-05-05 18:07 | 46.05886 | -2.24803 | 35919 ft | 473 kts | 13° |
| 2026-05-05 18:07 | 46.12360 | -2.23148 | 35915 ft | 472 kts | 9° |
| 2026-05-05 18:08 | 46.18858 | -2.21646 | 35916 ft | 473 kts | 9° |
| 2026-05-05 18:08 | 46.25388 | -2.20086 | 35912 ft | 473 kts | 9° |
| 2026-05-05 18:09 | 46.31872 | -2.18501 | 35912 ft | 473 kts | 9° |
| 2026-05-05 18:09 | 46.38359 | -2.16906 | 35915 ft | 472 kts | 9° |
| 2026-05-05 18:10 | 46.44838 | -2.15309 | 35909 ft | 472 kts | 10° |
| 2026-05-05 18:10 | 46.51304 | -2.13714 | 35899 ft | 472 kts | 10° |
| 2026-05-05 18:11 | 46.57785 | -2.12112 | 35906 ft | 472 kts | 10° |
| 2026-05-05 18:11 | 46.64257 | -2.10508 | 35903 ft | 472 kts | 10° |
| 2026-05-05 18:12 | 46.70720 | -2.08902 | 35906 ft | 472 kts | 10° |
| 2026-05-05 18:12 | 46.77236 | -2.07280 | 35905 ft | 472 kts | 10° |
| 2026-05-05 18:13 | 46.83707 | -2.05663 | 35910 ft | 472 kts | 10° |
| 2026-05-05 18:13 | 46.90188 | -2.04041 | 35900 ft | 472 kts | 10° |
| 2026-05-05 18:14 | 46.96674 | -2.02413 | 35902 ft | 472 kts | 10° |
| 2026-05-05 18:14 | 47.03151 | -2.00789 | 35906 ft | 472 kts | 10° |
| 2026-05-05 18:15 | 47.09634 | -1.99187 | 35906 ft | 472 kts | 10° |
| 2026-05-05 18:15 | 47.16115 | -1.97584 | 35915 ft | 473 kts | 10° |
| 2026-05-05 18:16 | 47.22613 | -1.95968 | 35908 ft | 473 kts | 11° |
| 2026-05-05 18:16 | 47.29147 | -1.94340 | 35906 ft | 473 kts | 11° |
| 2026-05-05 18:17 | 47.35668 | -1.93095 | 35916 ft | 473 kts | 3° |
| 2026-05-05 18:17 | 47.42250 | -1.93576 | 35915 ft | 474 kts | 356° |
| 2026-05-05 18:18 | 47.48829 | -1.94367 | 35908 ft | 474 kts | 356° |
| 2026-05-05 18:18 | 47.55402 | -1.95069 | 35909 ft | 473 kts | 357° |
| 2026-05-05 18:19 | 47.61970 | -1.95519 | 35901 ft | 472 kts | 4° |
| 2026-05-05 18:19 | 47.68419 | -1.93978 | 35903 ft | 469 kts | 17° |
| 2026-05-05 18:20 | 47.74585 | -1.90828 | 35905 ft | 468 kts | 21° |
| 2026-05-05 18:20 | 47.80730 | -1.87621 | 35912 ft | 468 kts | 20° |
| 2026-05-05 18:21 | 47.86894 | -1.84460 | 35906 ft | 469 kts | 20° |
| 2026-05-05 18:21 | 47.92068 | -1.81817 | 35912 ft | 469 kts | 20° |
| 2026-05-05 18:22 | 47.98256 | -1.78646 | 35913 ft | 471 kts | 20° |
| 2026-05-05 18:22 | 48.04466 | -1.75603 | 35902 ft | 470 kts | 15° |
| 2026-05-05 18:23 | 48.10938 | -1.74164 | 35906 ft | 471 kts | 4° |
| 2026-05-05 18:23 | 48.17498 | -1.74223 | 35914 ft | 471 kts | 0° |
| 2026-05-05 18:24 | 48.24059 | -1.74373 | 35913 ft | 472 kts | 0° |
| 2026-05-05 18:24 | 48.30622 | -1.74478 | 35910 ft | 472 kts | 0° |
| 2026-05-05 18:25 | 48.37203 | -1.74558 | 35916 ft | 472 kts | 0° |
| 2026-05-05 18:25 | 48.43777 | -1.74633 | 35934 ft | 473 kts | 0° |
| 2026-05-05 18:26 | 48.50361 | -1.74710 | 35928 ft | 473 kts | 0° |
| 2026-05-05 18:26 | 48.56939 | -1.74789 | 35919 ft | 473 kts | 0° |
| 2026-05-05 18:27 | 48.63524 | -1.74869 | 35926 ft | 472 kts | 0° |
| 2026-05-05 18:27 | 48.70129 | -1.74949 | 35931 ft | 471 kts | 0° |
| 2026-05-05 18:28 | 48.79981 | -1.75067 | 35922 ft | 472 kts | 0° |
| 2026-05-05 18:28 | 48.86552 | -1.75146 | 35923 ft | 472 kts | 0° |
| 2026-05-05 18:29 | 48.93130 | -1.75198 | 35919 ft | 472 kts | 1° |
| 2026-05-05 18:29 | 48.99690 | -1.74963 | 35926 ft | 471 kts | 3° |
| 2026-05-05 18:30 | 49.06257 | -1.74655 | 35927 ft | 471 kts | 2° |
| 2026-05-05 18:30 | 49.12809 | -1.74381 | 35932 ft | 471 kts | 2° |
| 2026-05-05 18:31 | 49.19356 | -1.74132 | 35932 ft | 471 kts | 2° |
| 2026-05-05 18:31 | 49.25908 | -1.73887 | 35934 ft | 471 kts | 2° |
| 2026-05-05 18:32 | 49.32442 | -1.73641 | 35929 ft | 470 kts | 2° |
| 2026-05-05 18:32 | 49.39029 | -1.73390 | 35931 ft | 470 kts | 2° |
| 2026-05-05 18:33 | 49.45578 | -1.73126 | 35932 ft | 470 kts | 2° |
| 2026-05-05 18:33 | 49.52109 | -1.72881 | 35931 ft | 469 kts | 2° |
| 2026-05-05 18:34 | 49.58634 | -1.72634 | 35934 ft | 469 kts | 2° |
| 2026-05-05 18:34 | 49.64994 | -1.71116 | 35946 ft | 464 kts | 19° |
| 2026-05-05 18:35 | 49.68097 | -1.69368 | 35724 ft | 469 kts | 22° |
| 2026-05-05 18:35 | 49.71138 | -1.67566 | 35392 ft | 467 kts | 21° |
| 2026-05-05 18:35 | 49.74176 | -1.65866 | 35066 ft | 460 kts | 20° |
| 2026-05-05 18:35 | 49.77189 | -1.64310 | 34773 ft | 454 kts | 18° |
| 2026-05-05 18:36 | 49.80188 | -1.62853 | 34591 ft | 447 kts | 18° |
| 2026-05-05 18:36 | 49.83158 | -1.61452 | 34210 ft | 444 kts | 18° |
| 2026-05-05 18:36 | 49.86102 | -1.60073 | 33717 ft | 441 kts | 18° |
| 2026-05-05 18:36 | 49.89034 | -1.58696 | 33183 ft | 438 kts | 18° |
| 2026-05-05 18:37 | 49.91980 | -1.57303 | 32705 ft | 435 kts | 18° |
| 2026-05-05 18:37 | 49.94858 | -1.55935 | 32232 ft | 431 kts | 18° |
| 2026-05-05 18:37 | 49.97716 | -1.54568 | 31757 ft | 428 kts | 18° |
| 2026-05-05 18:37 | 50.00530 | -1.53117 | 31287 ft | 425 kts | 19° |
| 2026-05-05 18:38 | 50.03317 | -1.51607 | 30836 ft | 422 kts | 20° |
| 2026-05-05 18:38 | 50.06075 | -1.50099 | 30375 ft | 419 kts | 20° |
| 2026-05-05 18:38 | 50.08813 | -1.48608 | 29899 ft | 417 kts | 20° |
| 2026-05-05 18:38 | 50.11551 | -1.47128 | 29383 ft | 415 kts | 19° |
| 2026-05-05 18:39 | 50.14275 | -1.45662 | 28887 ft | 412 kts | 19° |
| 2026-05-05 18:39 | 50.17005 | -1.44196 | 28404 ft | 409 kts | 19° |
| 2026-05-05 18:39 | 50.19661 | -1.42770 | 27923 ft | 406 kts | 19° |
| 2026-05-05 18:39 | 50.22361 | -1.41318 | 27438 ft | 404 kts | 19° |
| 2026-05-05 18:40 | 50.25015 | -1.39891 | 26950 ft | 402 kts | 19° |
| 2026-05-05 18:40 | 50.27653 | -1.38467 | 26465 ft | 400 kts | 19° |
| 2026-05-05 18:40 | 50.30280 | -1.37037 | 26003 ft | 398 kts | 19° |
| 2026-05-05 18:40 | 50.32888 | -1.35618 | 25543 ft | 397 kts | 19° |
| 2026-05-05 18:41 | 50.35493 | -1.34206 | 25074 ft | 395 kts | 19° |
| 2026-05-05 18:41 | 50.38078 | -1.32806 | 24615 ft | 393 kts | 19° |
| 2026-05-05 18:41 | 50.40701 | -1.31383 | 24138 ft | 392 kts | 19° |
| 2026-05-05 18:41 | 50.43276 | -1.29978 | 23672 ft | 391 kts | 19° |
| 2026-05-05 18:42 | 50.45847 | -1.28575 | 23150 ft | 390 kts | 19° |
| 2026-05-05 18:42 | 50.48405 | -1.27179 | 22641 ft | 388 kts | 19° |
| 2026-05-05 18:42 | 50.50944 | -1.25794 | 22174 ft | 386 kts | 19° |
| 2026-05-05 18:42 | 50.53472 | -1.24412 | 21723 ft | 383 kts | 19° |
| 2026-05-05 18:43 | 50.55982 | -1.23041 | 21277 ft | 381 kts | 19° |
| 2026-05-05 18:43 | 50.58476 | -1.21676 | 20824 ft | 378 kts | 19° |
| 2026-05-05 18:43 | 50.60943 | -1.20325 | 20371 ft | 370 kts | 19° |
| 2026-05-05 18:43 | 50.63325 | -1.19019 | 19948 ft | 354 kts | 19° |
| 2026-05-05 18:44 | 50.65637 | -1.17751 | 19534 ft | 351 kts | 19° |
| 2026-05-05 18:44 | 50.67944 | -1.16485 | 19132 ft | 351 kts | 19° |
| 2026-05-05 18:44 | 50.70251 | -1.15216 | 18720 ft | 352 kts | 19° |
| 2026-05-05 18:44 | 50.72571 | -1.13939 | 18294 ft | 353 kts | 19° |
| 2026-05-05 18:45 | 50.74892 | -1.12662 | 17823 ft | 354 kts | 19° |
| 2026-05-05 18:45 | 50.77213 | -1.11389 | 17365 ft | 354 kts | 19° |
| 2026-05-05 18:45 | 50.79566 | -1.10093 | 16918 ft | 354 kts | 19° |
| 2026-05-05 18:45 | 50.81900 | -1.08803 | 16474 ft | 353 kts | 19° |
| 2026-05-05 18:46 | 50.84209 | -1.07525 | 16043 ft | 353 kts | 19° |
| 2026-05-05 18:46 | 50.85752 | -1.06668 | 15753 ft | 353 kts | 19° |
| 2026-05-05 18:46 | 50.88072 | -1.05381 | 15325 ft | 353 kts | 19° |
| 2026-05-05 18:46 | 50.90374 | -1.04102 | 14890 ft | 353 kts | 19° |
| 2026-05-05 18:47 | 50.92659 | -1.02832 | 14453 ft | 353 kts | 19° |
| 2026-05-05 18:47 | 50.94981 | -1.01539 | 14002 ft | 353 kts | 19° |
| 2026-05-05 18:47 | 50.97330 | -1.00232 | 13549 ft | 353 kts | 19° |
| 2026-05-05 18:47 | 50.99630 | -0.98904 | 13078 ft | 346 kts | 23° |
| 2026-05-05 18:48 | 51.01524 | -0.96862 | 12944 ft | 323 kts | 47° |
| 2026-05-05 18:48 | 51.02839 | -0.94238 | 12900 ft | 287 kts | 50° |
| 2026-05-05 18:48 | 51.04110 | -0.91915 | 12944 ft | 270 kts | 47° |
| 2026-05-05 18:48 | 51.05368 | -0.89729 | 12924 ft | 265 kts | 46° |
| 2026-05-05 18:49 | 51.06604 | -0.87577 | 12946 ft | 263 kts | 47° |
| 2026-05-05 18:49 | 51.07826 | -0.85431 | 12804 ft | 265 kts | 47° |
| 2026-05-05 18:49 | 51.09090 | -0.83198 | 12342 ft | 273 kts | 47° |
| 2026-05-05 18:49 | 51.10333 | -0.80991 | 12170 ft | 265 kts | 47° |
| 2026-05-05 18:50 | 51.11551 | -0.78821 | 11922 ft | 260 kts | 47° |
| 2026-05-05 18:50 | 51.12751 | -0.76681 | 11666 ft | 257 kts | 47° |
| 2026-05-05 18:50 | 51.13936 | -0.74561 | 11369 ft | 256 kts | 47° |
| 2026-05-05 18:50 | 51.15140 | -0.72403 | 11052 ft | 256 kts | 47° |
| 2026-05-05 18:51 | 51.16316 | -0.70295 | 10754 ft | 255 kts | 47° |
| 2026-05-05 18:51 | 51.17490 | -0.68190 | 10458 ft | 254 kts | 47° |
| 2026-05-05 18:51 | 51.18664 | -0.66081 | 10166 ft | 253 kts | 47° |
| 2026-05-05 18:51 | 51.19829 | -0.63987 | 9887 ft | 252 kts | 47° |
| 2026-05-05 18:52 | 51.21054 | -0.62076 | 9477 ft | 245 kts | 31° |
| 2026-05-05 18:52 | 51.22664 | -0.61207 | 9011 ft | 246 kts | 0° |
| 2026-05-05 18:52 | 51.24300 | -0.61814 | 8734 ft | 242 kts | 330° |
| 2026-05-05 18:52 | 51.25550 | -0.63595 | 8426 ft | 238 kts | 311° |
| 2026-05-05 18:53 | 51.26627 | -0.65570 | 7932 ft | 238 kts | 320° |
| 2026-05-05 18:53 | 51.28005 | -0.67089 | 7484 ft | 235 kts | 325° |
| 2026-05-05 18:53 | 51.29210 | -0.68892 | 7044 ft | 241 kts | 313° |
| 2026-05-05 18:53 | 51.30308 | -0.70950 | 6579 ft | 248 kts | 311° |
| 2026-05-05 18:54 | 51.31425 | -0.73102 | 6085 ft | 252 kts | 311° |
| 2026-05-05 18:54 | 51.32518 | -0.75232 | 5528 ft | 242 kts | 311° |
| 2026-05-05 18:54 | 51.33671 | -0.77054 | 4987 ft | 229 kts | 331° |
| 2026-05-05 18:54 | 51.35144 | -0.77732 | 4452 ft | 216 kts | 360° |
| 2026-05-05 18:55 | 51.36594 | -0.77707 | 4145 ft | 202 kts | 1° |
| 2026-05-05 18:55 | 51.37972 | -0.77717 | 4053 ft | 197 kts | 0° |
| 2026-05-05 18:55 | 51.39360 | -0.77733 | 4013 ft | 202 kts | 0° |
| 2026-05-05 18:55 | 51.40788 | -0.77748 | 3830 ft | 208 kts | 0° |
| 2026-05-05 18:56 | 51.42212 | -0.77757 | 3664 ft | 200 kts | 1° |
| 2026-05-05 18:56 | 51.43572 | -0.77751 | 3417 ft | 191 kts | 4° |
| 2026-05-05 18:56 | 51.44786 | -0.77075 | 3142 ft | 188 kts | 39° |
| 2026-05-05 18:56 | 51.45506 | -0.75336 | 3061 ft | 186 kts | 63° |
| 2026-05-05 18:57 | 51.46065 | -0.73481 | 3003 ft | 183 kts | 61° |
| 2026-05-05 18:57 | 51.46636 | -0.71690 | 2968 ft | 182 kts | 60° |
| 2026-05-05 18:57 | 51.47219 | -0.69873 | 2736 ft | 181 kts | 62° |
| 2026-05-05 18:57 | 51.47524 | -0.67917 | 2501 ft | 180 kts | 83° |
| 2026-05-05 18:58 | 51.47633 | -0.65905 | 2268 ft | 183 kts | 83° |
| 2026-05-05 18:58 | 51.47690 | -0.63873 | 2014 ft | 180 kts | 86° |
| 2026-05-05 18:58 | 51.47700 | -0.61906 | 1775 ft | 174 kts | 87° |
| 2026-05-05 18:58 | 51.47707 | -0.59981 | 1531 ft | 173 kts | 88° |
| 2026-05-05 18:59 | 51.47714 | -0.58083 | 1327 ft | 168 kts | 87° |
| 2026-05-05 18:59 | 51.47721 | -0.56206 | 1072 ft | 168 kts | 87° |
| 2026-05-05 18:59 | 51.47727 | -0.54432 | 837 ft | 145 kts | 87° |
| 2026-05-05 18:59 | 51.47732 | -0.52918 | 644 ft | 128 kts | 87° |
| 2026-05-05 19:00 | 51.47735 | -0.51484 | 491 ft | 131 kts | 88° |
| 2026-05-05 19:00 | 51.47740 | -0.50009 | 307 ft | 130 kts | 88° |
| 2026-05-05 19:00 | 51.47745 | -0.48575 | 152 ft | 131 kts | 86° |
| 2026-05-05 19:00 | 51.47759 | -0.47145 | 94 ft | 118 kts | 88° |
| 2026-05-05 19:01 | 51.47760 | -0.46116 | 94 ft | 62 kts | 93° |
| 2026-05-05 19:01 | 51.47756 | -0.45664 | 93 ft | 23 kts | 91° |
| 2026-05-05 19:01 | 51.47733 | -0.45515 | 95 ft | 11 kts | 125° |
| 2026-05-05 19:01 | 51.47663 | -0.45467 | 91 ft | 11 kts | 176° |
| 2026-05-05 19:02 | 51.47608 | -0.45504 | 93 ft | 7 kts | 251° |
| 2026-05-05 19:02 | 51.47597 | -0.45579 | 94 ft | 7 kts | 262° |
| 2026-05-05 19:02 | 51.47596 | -0.45649 | 95 ft | 0 kts | 270° |
| 2026-05-05 19:03 | 51.47596 | -0.45724 | 95 ft | 9 kts | 270° |
| 2026-05-05 19:04 | 51.47596 | -0.45828 | 95 ft | 10 kts | 270° |
| 2026-05-05 19:04 | 51.47596 | -0.45945 | 95 ft | 11 kts | 269° |
| 2026-05-05 19:04 | 51.47577 | -0.46055 | 95 ft | 11 kts | 224° |
| 2026-05-05 19:04 | 51.47520 | -0.46127 | 93 ft | 11 kts | 240° |
| 2026-05-05 19:05 | 51.47512 | -0.46244 | 94 ft | 11 kts | 273° |
| 2026-05-05 19:05 | 51.47515 | -0.46363 | 91 ft | 11 kts | 271° |
| 2026-05-05 19:05 | 51.47515 | -0.46483 | 91 ft | 11 kts | 269° |
| 2026-05-05 19:05 | 51.47514 | -0.46601 | 94 ft | 11 kts | 269° |
| 2026-05-05 19:06 | 51.47507 | -0.46723 | 94 ft | 12 kts | 252° |
| 2026-05-05 19:06 | 51.47491 | -0.46848 | 92 ft | 12 kts | 271° |
| 2026-05-05 19:06 | 51.47493 | -0.46981 | 93 ft | 12 kts | 269° |
| 2026-05-05 19:06 | 51.47490 | -0.47129 | 93 ft | 14 kts | 270° |
| 2026-05-05 19:07 | 51.47490 | -0.47288 | 91 ft | 14 kts | 270° |
| 2026-05-05 19:07 | 51.47491 | -0.47393 | 91 ft | 14 kts | 270° |
| 2026-05-05 19:07 | 51.47491 | -0.47606 | 92 ft | 14 kts | 270° |
| 2026-05-05 19:07 | 51.47490 | -0.47765 | 92 ft | 14 kts | 270° |
| 2026-05-05 19:08 | 51.47489 | -0.47924 | 92 ft | 14 kts | 268° |
| 2026-05-05 19:08 | 51.47489 | -0.48083 | 93 ft | 14 kts | 271° |
| 2026-05-05 19:08 | 51.47488 | -0.48221 | 94 ft | 11 kts | 268° |
| 2026-05-05 19:08 | 51.47474 | -0.48338 | 96 ft | 11 kts | 222° |
| 2026-05-05 19:09 | 51.47399 | -0.48360 | 91 ft | 11 kts | 181° |
| 2026-05-05 19:09 | 51.47323 | -0.48361 | 91 ft | 11 kts | 179° |
| 2026-05-05 19:09 | 51.47245 | -0.48361 | 94 ft | 11 kts | 180° |
| 2026-05-05 19:09 | 51.47168 | -0.48361 | 91 ft | 11 kts | 178° |
| 2026-05-05 19:10 | 51.47096 | -0.48360 | 92 ft | 5 kts | 180° |
| 2026-05-05 19:10 | 51.47060 | -0.48354 | 92 ft | 5 kts | 154° |
| 2026-05-05 19:10 | 51.47049 | -0.48300 | 92 ft | 0 kts | 96° |
| 2026-05-05 19:10 | 51.47049 | -0.48295 | 93 ft | 1 kts | 95° |
| 2026-05-05 19:11 | 51.47049 | -0.48280 | 95 ft | 1 kts | 92° |
| 2026-05-05 19:11 | 51.47048 | -0.48265 | 95 ft | 1 kts | 92° |
| 2026-05-05 19:11 | 51.47048 | -0.48250 | 95 ft | 1 kts | 90° |
| 2026-05-05 19:11 | 51.47048 | -0.48234 | 95 ft | 1 kts | 89° |